Waters Park, TX

4:46 PM CST on February 26, 2017 (GMT -0600)
Lamplight Village | | Change Station

Elev 726 ft 30.42 °N, 97.70 °W | Updated 47 seconds ago

Overcast
Overcast
69.6 °F
Feels Like 69.6 °F
N
6.0
Wind Variable Wind from SE
Gusts 6.9 mph

Today
High -- | Low -- °F
--% Chance of Precip.
Yesterday
High -- | Low -- °F
Precip. -- in
Pressure 29.87 in
Visibility 10.0 miles
Clouds Mostly Cloudy 2200 ft
Overcast 3600 ft
Dew Point 62 °F
Humidity 76%
Rainfall 0.00 in
Snow Depth Not available.
6:59 AM 6:27 PM
New Moon, 0% visible
SPECI KATT 262216Z AUTO VRB04KT 10SM BKN022 OVC036 21/16 A2987 RMK AO2 T02110161
Pressure 29.87 in
Visibility 10.0 miles
Clouds Mostly Cloudy 2200 ft
Overcast 3600 ft
Dew Point 62 °F
Humidity 76%
Rainfall 0.00 in
Snow Depth Not available.
6:59 AM 6:27 PM
New Moon, 0% visible
SPECI KATT 262216Z AUTO VRB04KT 10SM BKN022 OVC036 21/16 A2987 RMK AO2 T02110161

Get Your Daily Forecast Email!

Thanks for signing up!

Be on the lookout for a verification email in your inbox.

You'll start receiving the daily forecast at 8 AM.

×

10-Day Weather Forecast

Almanac

Astronomy

Feb. 26, 2017 Rise Set
Actual Time
Civil Twilight
Nautical Twilight
Astronomical Twilight
Moon
Length of Visible Light
Length of Day
Tomorrow will be .
, % of the Moon is Illuminated

Today's Extremes

State Highs State Lows

Community

WunderPhotos

Upload Photos

1,962,540 photos uploaded!

WunderBlog® & News

Nearby

Air Quality

  Air Quality AQ Index Pollutant
Not available.

Snow Depth

Station Depth Elevation

Earthquake Activity

City Distance Mag. Time & Date
Minimum magnitude displayed is 2.5.

Coastal Water Temperatures

Place Temperature

Stations

Nearby Weather Stations

Station Location Temp. Windchill Dew Point Humidity Wind Precip. Elev Updated Type
                   

Watches & Warnings

There are currently no watches in effect.